Belogorsk, Russia
Current Conditions -  °F | °C
As of 7:30 AM on Thursday 23 Oct 2014 (Local Time) from UHBB Reporting Station
Clear Clear  
Wind Chill: 37°   Ceiling: Unl
Heat Index: 37°   Visibility: 4mi
Dew Point: 19°   Wind: 2mph
Humidity: 48%   Direction: NA
Pressure: 29.65"   Gusts: NA
Location:  50.92°N, 128.47°E
Report Text: UHBB 222230Z VRB01MPS 7000 NSC 03/M07 Q1004 NOSIG RMKQFE736/0981 36090060
Loading
Personal Weather Stations






























Interactive Weather Map
Tropical Storm Tracking
New forecast layout! Learn more

10-Day Weather Forecast

Advertisements
Track Severe Weather on mobile